createdAt,value
2022-12-27T00:02:17.633Z,0.30
2022-12-27T00:04:44.378Z,0.40
2022-12-27T00:07:11.078Z,0.30
2022-12-27T00:09:37.835Z,0.40
2022-12-27T00:12:04.903Z,0.40
2022-12-27T00:14:31.789Z,0.40
2022-12-27T00:16:58.446Z,0.47
2022-12-27T00:19:25.098Z,0.30
2022-12-27T00:21:51.800Z,0.30
2022-12-27T00:24:18.464Z,0.47
2022-12-27T00:26:45.158Z,0.60
2022-12-27T00:29:11.823Z,0.52
2022-12-27T00:31:38.648Z,0.40
2022-12-27T00:34:07.707Z,1.63
2022-12-27T00:36:34.989Z,0.50
2022-12-27T00:39:02.041Z,0.60
2022-12-27T00:41:28.792Z,1.65
2022-12-27T00:43:56.155Z,0.70
2022-12-27T00:46:23.153Z,0.65
2022-12-27T00:48:49.878Z,0.50
2022-12-27T00:51:22.361Z,1.33
2022-12-27T00:56:19.505Z,0.50
2022-12-27T00:58:46.782Z,0.57
2022-12-27T01:01:19.706Z,0.77
2022-12-27T01:03:47.035Z,0.60
2022-12-27T01:06:19.395Z,0.50
2022-12-27T01:08:49.117Z,0.60
2022-12-27T01:11:17.458Z,0.88
2022-12-27T01:13:45.020Z,1.50
2022-12-27T01:16:21.730Z,1.60
2022-12-27T01:18:49.589Z,0.60
2022-12-27T01:21:20.250Z,0.80
2022-12-27T01:23:47.893Z,1.80
2022-12-27T01:26:18.092Z,0.93
2022-12-27T01:28:45.802Z,1.90
2022-12-27T01:31:18.753Z,1.63
2022-12-27T01:33:45.779Z,1.13
2022-12-27T01:36:21.887Z,1.80
2022-12-27T01:38:49.328Z,1.58
2022-12-27T01:41:50.282Z,1.50
2022-12-27T01:44:36.005Z,1.00
2022-12-27T01:47:04.501Z,0.82
2022-12-27T01:49:31.601Z,2.75
2022-12-27T01:51:58.830Z,1.33
2022-12-27T01:54:25.761Z,2.28
2022-12-27T01:56:53.030Z,1.05
2022-12-27T01:59:19.741Z,1.35
2022-12-27T02:01:47.316Z,2.20
2022-12-27T02:04:18.718Z,1.15
2022-12-27T02:06:46.674Z,2.25
2022-12-27T02:09:26.380Z,2.00
2022-12-27T02:11:56.911Z,0.80
2022-12-27T02:14:40.171Z,1.35
2022-12-27T02:17:19.667Z,1.30
2022-12-27T02:19:58.185Z,1.42
2022-12-27T02:23:21.688Z,2.25
2022-12-27T02:28:56.123Z,1.50
2022-12-27T02:31:35.564Z,1.92
2022-12-27T02:34:06.007Z,1.88
2022-12-27T02:36:37.164Z,0.80
2022-12-27T02:39:05.160Z,2.45
2022-12-27T02:41:53.407Z,1.30
2022-12-27T02:44:50.254Z,3.60
2022-12-27T02:47:40.807Z,1.98
2022-12-27T02:50:29.450Z,1.67
2022-12-27T02:53:05.710Z,1.40
2022-12-27T02:56:23.860Z,3.58
2022-12-27T02:59:10.572Z,1.88
2022-12-27T03:02:06.522Z,3.20
2022-12-27T03:04:42.225Z,2.90
2022-12-27T03:07:14.654Z,1.98
2022-12-27T03:10:26.289Z,2.03
2022-12-27T03:13:26.306Z,1.42
2022-12-27T03:16:11.123Z,1.67
2022-12-27T03:18:44.145Z,2.33
2022-12-27T03:21:32.758Z,1.45
2022-12-27T03:24:19.641Z,2.28
2022-12-27T03:26:50.083Z,1.42
2022-12-27T03:29:39.479Z,2.60
2022-12-27T03:32:28.758Z,3.42
2022-12-27T03:35:15.113Z,1.13
2022-12-27T03:38:05.255Z,1.15
2022-12-27T03:41:02.685Z,1.35
2022-12-27T03:43:30.258Z,1.92
2022-12-27T03:46:28.177Z,1.50
2022-12-27T03:49:03.489Z,2.17
2022-12-27T03:51:35.721Z,2.50
2022-12-27T03:54:10.317Z,0.77
2022-12-27T03:56:38.735Z,10.57
2022-12-27T03:59:06.357Z,0.98
2022-12-27T04:01:33.143Z,0.63
2022-12-27T04:03:59.867Z,2.40
2022-12-27T04:06:26.654Z,3.05
2022-12-27T04:09:11.746Z,1.27
2022-12-27T04:11:57.077Z,1.88
2022-12-27T04:14:42.225Z,1.00
2022-12-27T04:17:27.482Z,2.38
2022-12-27T04:20:13.072Z,1.75
2022-12-27T04:22:58.262Z,1.65
2022-12-27T04:25:43.656Z,1.13
2022-12-27T04:28:29.029Z,2.38
2022-12-27T04:31:14.525Z,2.97
2022-12-27T04:34:00.209Z,1.00
2022-12-27T04:36:26.888Z,1.55
2022-12-27T04:38:53.826Z,3.38
2022-12-27T04:41:39.195Z,0.60
2022-12-27T04:44:24.720Z,1.33
2022-12-27T04:47:10.011Z,0.73
2022-12-27T04:49:55.391Z,1.35
2022-12-27T04:52:42.597Z,1.05
2022-12-27T04:55:23.496Z,0.98
2022-12-27T04:57:51.070Z,1.40
2022-12-27T05:00:38.111Z,1.20
2022-12-27T05:03:09.069Z,1.25
2022-12-27T05:05:37.881Z,1.23
2022-12-27T05:08:24.807Z,0.82
2022-12-27T05:11:10.422Z,1.98
2022-12-27T05:13:55.522Z,0.77
2022-12-27T05:16:22.344Z,0.80
2022-12-27T05:18:49.076Z,2.47
2022-12-27T05:21:15.937Z,8.38
2022-12-27T05:24:05.371Z,0.88
2022-12-27T05:26:33.816Z,2.25
2022-12-27T05:29:01.246Z,2.88
2022-12-27T05:31:29.350Z,1.45
2022-12-27T05:33:57.002Z,1.75
2022-12-27T05:36:23.929Z,1.55
2022-12-27T05:38:51.466Z,3.08
2022-12-27T05:41:18.827Z,1.10
2022-12-27T05:43:45.696Z,2.00
2022-12-27T05:46:15.000Z,4.32
2022-12-27T05:48:41.891Z,2.30
2022-12-27T05:51:14.443Z,1.80
2022-12-27T05:53:41.191Z,1.08
2022-12-27T05:56:09.373Z,0.82
2022-12-27T05:58:36.011Z,3.50
2022-12-27T06:01:09.175Z,3.28
2022-12-27T06:03:36.579Z,2.03
2022-12-27T06:06:04.151Z,0.98
2022-12-27T06:08:31.158Z,0.88
2022-12-27T06:11:09.321Z,2.15
2022-12-27T06:13:37.361Z,2.47
2022-12-27T06:16:06.527Z,1.48
2022-12-27T06:18:35.527Z,1.95
2022-12-27T06:21:17.441Z,2.42
2022-12-27T06:23:45.126Z,0.80
2022-12-27T06:26:18.450Z,1.23
2022-12-27T06:28:45.834Z,1.25
2022-12-27T06:31:12.839Z,2.13
2022-12-27T06:33:39.699Z,1.80
2022-12-27T06:36:08.104Z,1.80
2022-12-27T06:38:34.840Z,1.30
2022-12-27T06:41:03.181Z,2.72
2022-12-27T06:43:30.172Z,1.25
2022-12-27T06:46:01.668Z,0.88
2022-12-27T06:48:28.518Z,2.13
2022-12-27T06:50:55.342Z,4.82
2022-12-27T06:53:22.312Z,12.88
2022-12-27T06:55:49.134Z,15.93
2022-12-27T06:58:16.384Z,15.95
2022-12-27T07:00:43.599Z,4.30
2022-12-27T07:03:10.330Z,5.55
2022-12-27T07:05:37.868Z,3.88
2022-12-27T07:08:05.682Z,11.30
2022-12-27T07:10:32.471Z,13.98
2022-12-27T07:12:59.415Z,15.50
2022-12-27T07:15:26.170Z,16.05
2022-12-27T07:17:52.846Z,16.58
2022-12-27T07:20:19.568Z,13.20
2022-12-27T07:22:46.281Z,14.15
2022-12-27T07:25:13.091Z,19.35
2022-12-27T07:27:39.792Z,17.75
2022-12-27T07:30:07.239Z,25.20
2022-12-27T07:32:33.898Z,28.38
2022-12-27T07:35:00.773Z,20.00
2022-12-27T07:37:27.471Z,11.20
2022-12-27T07:39:54.164Z,6.43
2022-12-27T07:42:20.849Z,3.45
2022-12-27T07:44:48.402Z,2.58
2022-12-27T07:47:15.080Z,2.67
2022-12-27T07:49:41.796Z,1.63
2022-12-27T07:52:08.436Z,3.60
2022-12-27T07:54:35.156Z,17.58
2022-12-27T07:57:01.840Z,15.52
2022-12-27T07:59:29.331Z,14.70
2022-12-27T08:02:05.338Z,13.73
2022-12-27T08:04:34.971Z,11.63
2022-12-27T08:07:12.195Z,14.05
2022-12-27T08:09:41.669Z,10.50
2022-12-27T08:12:08.932Z,6.53
2022-12-27T08:14:35.738Z,3.38
2022-12-27T08:17:06.564Z,3.83
2022-12-27T08:19:33.362Z,2.15
2022-12-27T08:22:00.058Z,2.08
2022-12-27T08:24:26.839Z,4.57
2022-12-27T08:26:53.523Z,3.03
2022-12-27T08:29:20.236Z,4.18
2022-12-27T08:31:46.933Z,2.72
2022-12-27T08:34:13.655Z,5.05
2022-12-27T08:36:56.539Z,6.80
2022-12-27T08:39:24.379Z,6.22
2022-12-27T08:41:53.293Z,6.78
2022-12-27T08:44:20.193Z,6.07
2022-12-27T08:46:47.399Z,5.88
2022-12-27T08:49:14.165Z,5.50
2022-12-27T08:51:41.674Z,5.60
2022-12-27T08:54:10.207Z,3.40
2022-12-27T08:56:37.059Z,3.35
2022-12-27T08:59:04.145Z,3.10
2022-12-27T09:01:31.013Z,3.80
2022-12-27T09:03:57.838Z,6.00
2022-12-27T09:06:25.662Z,5.18
2022-12-27T09:08:54.511Z,4.57
2022-12-27T09:11:22.610Z,3.70
2022-12-27T09:13:49.474Z,4.22
2022-12-27T09:16:19.140Z,4.05
2022-12-27T09:18:52.153Z,4.05
2022-12-27T09:21:20.391Z,3.50
2022-12-27T09:23:48.016Z,2.75
2022-12-27T09:26:22.211Z,3.53
2022-12-27T09:28:49.873Z,3.92
2022-12-27T09:31:18.087Z,8.13
2022-12-27T09:33:45.275Z,3.05
2022-12-27T09:36:15.239Z,2.17
2022-12-27T09:38:43.202Z,2.97
2022-12-27T09:44:24.208Z,1.98
2022-12-27T09:47:17.398Z,3.97
2022-12-27T09:49:52.522Z,2.75
2022-12-27T09:52:26.703Z,1.00
2022-12-27T09:55:06.307Z,1.95
2022-12-27T09:57:40.733Z,0.80
2022-12-27T10:00:19.415Z,3.90
2022-12-27T10:03:04.660Z,2.00
2022-12-27T10:05:34.407Z,2.95
2022-12-27T10:08:09.965Z,1.10
2022-12-27T10:10:49.094Z,1.60
2022-12-27T10:13:42.827Z,3.53
2022-12-27T10:16:32.315Z,3.15
2022-12-27T10:19:23.469Z,3.33
2022-12-27T10:22:15.962Z,1.23
2022-12-27T10:24:49.035Z,1.98
2022-12-27T10:27:20.924Z,1.20
2022-12-27T10:29:48.997Z,1.17
2022-12-27T10:32:16.482Z,2.00
2022-12-27T10:34:43.413Z,5.82
2022-12-27T10:37:16.609Z,1.33
2022-12-27T10:39:44.034Z,2.60
2022-12-27T10:42:35.533Z,1.27
2022-12-27T10:45:28.467Z,1.52
2022-12-27T10:50:28.127Z,1.13
2022-12-27T10:52:57.694Z,3.10
2022-12-27T10:55:32.989Z,1.58
2022-12-27T10:58:18.559Z,0.70
2022-12-27T11:00:54.913Z,1.85
2022-12-27T11:03:21.868Z,3.08
2022-12-27T11:06:05.724Z,2.15
2022-12-27T11:08:32.911Z,2.30
2022-12-27T11:11:14.118Z,0.63
2022-12-27T11:13:42.315Z,4.07
2022-12-27T11:16:27.563Z,2.17
2022-12-27T11:18:57.460Z,3.25
2022-12-27T11:21:28.028Z,10.27
2022-12-27T11:23:58.531Z,5.70
2022-12-27T11:26:32.572Z,4.15
2022-12-27T11:29:03.577Z,1.80
2022-12-27T11:31:42.380Z,3.83
2022-12-27T11:34:30.960Z,3.45
2022-12-27T11:37:06.337Z,2.60
2022-12-27T11:39:41.008Z,3.90
2022-12-27T11:42:38.486Z,2.55
2022-12-27T11:45:19.322Z,2.92
2022-12-27T11:47:54.121Z,1.65
2022-12-27T11:50:26.900Z,1.67
2022-12-27T11:52:59.845Z,1.83
2022-12-27T11:55:47.388Z,1.27
2022-12-27T11:58:33.301Z,4.20
2022-12-27T12:01:38.344Z,2.55
2022-12-27T12:04:29.507Z,1.08
2022-12-27T12:07:15.066Z,1.10
2022-12-27T12:09:58.872Z,2.40
2022-12-27T12:13:10.589Z,3.03
2022-12-27T12:16:03.519Z,1.25
2022-12-27T12:21:26.283Z,3.63
2022-12-27T12:24:18.514Z,1.67
2022-12-27T12:26:57.069Z,0.85
2022-12-27T12:29:45.708Z,1.50
2022-12-27T12:32:25.668Z,1.77
2022-12-27T12:35:30.292Z,1.27
2022-12-27T12:38:22.916Z,1.25
2022-12-27T12:41:24.245Z,1.27
2022-12-27T12:43:51.815Z,2.33
2022-12-27T12:46:42.695Z,0.98
2022-12-27T12:49:18.257Z,1.83
2022-12-27T12:52:12.993Z,0.95
2022-12-27T12:55:03.317Z,0.82
2022-12-27T12:57:39.837Z,1.20
2022-12-27T13:00:25.356Z,2.05
2022-12-27T13:03:19.620Z,3.20
2022-12-27T13:06:04.816Z,0.68
2022-12-27T13:08:49.414Z,2.20
2022-12-27T13:11:39.911Z,0.73
2022-12-27T13:14:30.323Z,2.83
2022-12-27T13:17:18.972Z,0.85
2022-12-27T13:20:18.314Z,1.25
2022-12-27T13:22:53.970Z,3.85
2022-12-27T13:25:49.144Z,1.10
2022-12-27T13:28:34.303Z,1.42
2022-12-27T13:31:23.010Z,2.17
2022-12-27T13:34:20.663Z,0.57
2022-12-27T13:37:10.495Z,1.73
2022-12-27T13:40:08.084Z,0.65
2022-12-27T13:42:45.803Z,1.70
2022-12-27T13:45:28.031Z,2.50
2022-12-27T13:48:03.458Z,4.30
2022-12-27T13:51:01.371Z,4.05
2022-12-27T13:53:50.137Z,1.08
2022-12-27T13:59:41.970Z,0.95
2022-12-27T14:02:36.903Z,0.73
2022-12-27T14:05:40.920Z,0.77
2022-12-27T14:08:40.899Z,1.33
2022-12-27T14:11:19.951Z,1.35
2022-12-27T14:13:47.239Z,2.30
2022-12-27T14:16:22.869Z,2.28
2022-12-27T14:19:01.628Z,2.45
2022-12-27T14:22:04.015Z,2.38
2022-12-27T14:24:45.679Z,1.25
2022-12-27T14:27:33.528Z,6.15
2022-12-27T14:30:31.289Z,2.85
2022-12-27T14:33:22.321Z,1.20
2022-12-27T14:36:07.067Z,1.52
2022-12-27T14:38:51.788Z,1.55
2022-12-27T14:41:59.211Z,0.80
2022-12-27T14:44:56.908Z,0.60
2022-12-27T14:47:42.346Z,1.95
2022-12-27T14:50:27.781Z,2.53
2022-12-27T14:53:13.339Z,1.17
2022-12-27T14:55:44.385Z,1.58
2022-12-27T14:58:52.282Z,0.70
2022-12-27T15:01:43.607Z,3.05
2022-12-27T15:04:32.298Z,3.53
2022-12-27T15:07:23.012Z,1.92
2022-12-27T15:10:13.964Z,1.50
2022-12-27T15:12:55.579Z,2.17
2022-12-27T15:15:44.055Z,2.92
2022-12-27T15:18:16.644Z,2.70
2022-12-27T15:23:40.496Z,14.20
2022-12-27T15:26:21.977Z,9.07
2022-12-27T15:28:51.640Z,13.98
2022-12-27T15:31:26.312Z,5.85
2022-12-27T15:34:09.754Z,4.95
2022-12-27T15:36:47.533Z,8.13
2022-12-27T15:39:32.842Z,11.45
2022-12-27T15:42:24.191Z,14.32
2022-12-27T15:45:12.341Z,17.75
2022-12-27T15:48:15.583Z,8.88
2022-12-27T15:50:51.582Z,20.98
2022-12-27T15:53:40.643Z,20.73
2022-12-27T15:56:10.263Z,18.40
2022-12-27T15:58:37.487Z,13.25
2022-12-27T16:01:23.657Z,3.75
2022-12-27T16:03:53.740Z,2.75
2022-12-27T16:06:35.686Z,3.92
2022-12-27T16:09:35.582Z,5.43
2022-12-27T16:12:08.600Z,2.17
2022-12-27T16:14:38.177Z,8.48
2022-12-27T16:17:46.246Z,6.97
2022-12-27T16:20:19.168Z,6.18
2022-12-27T16:22:58.562Z,6.70
2022-12-27T16:25:40.653Z,8.05
2022-12-27T16:28:08.754Z,5.07
2022-12-27T16:30:45.745Z,6.38
2022-12-27T16:33:27.858Z,4.18
2022-12-27T16:36:19.194Z,5.15
2022-12-27T16:38:46.180Z,2.30
2022-12-27T16:41:24.544Z,1.58
2022-12-27T16:44:00.418Z,3.42
2022-12-27T16:46:53.341Z,5.55
2022-12-27T16:52:02.107Z,7.57
2022-12-27T16:55:02.461Z,12.98
2022-12-27T16:57:39.689Z,3.92
2022-12-27T17:00:35.600Z,6.75
2022-12-27T17:03:34.269Z,6.03
2022-12-27T17:06:35.318Z,6.93
2022-12-27T17:09:08.008Z,7.57
2022-12-27T17:11:46.601Z,7.50
2022-12-27T17:14:18.775Z,7.43
2022-12-27T17:16:52.326Z,7.55
2022-12-27T17:19:26.120Z,7.70
2022-12-27T17:21:58.842Z,6.30
2022-12-27T17:24:26.177Z,5.20
2022-12-27T17:27:18.674Z,8.55
2022-12-27T17:30:06.616Z,9.07
2022-12-27T17:32:52.368Z,11.07
2022-12-27T17:35:35.093Z,13.55
2022-12-27T17:40:43.444Z,9.93
2022-12-27T17:43:43.558Z,11.95
2022-12-27T17:46:38.819Z,11.80
2022-12-27T17:49:09.390Z,11.27
2022-12-27T17:51:40.867Z,10.73
2022-12-27T17:54:52.479Z,10.68
2022-12-27T17:57:39.257Z,15.23
2022-12-27T18:00:20.672Z,16.25
2022-12-27T18:02:48.192Z,12.18
2022-12-27T18:05:16.444Z,11.88
2022-12-27T18:07:44.386Z,29.95
2022-12-27T18:10:25.130Z,27.98
2022-12-27T18:12:54.359Z,17.70
2022-12-27T18:15:23.968Z,18.13
2022-12-27T18:17:57.458Z,15.32
2022-12-27T18:20:28.822Z,18.10
2022-12-27T18:23:01.640Z,24.67
2022-12-27T18:25:30.898Z,25.30
2022-12-27T18:28:03.483Z,27.92
2022-12-27T18:33:03.895Z,18.08
2022-12-27T18:35:31.267Z,19.67
2022-12-27T18:37:57.966Z,35.28
2022-12-27T18:40:26.213Z,31.88
2022-12-27T18:42:53.545Z,21.65
2022-12-27T18:45:27.019Z,25.02
2022-12-27T18:47:57.494Z,23.75
2022-12-27T18:50:30.044Z,28.17
2022-12-27T18:55:28.875Z,25.27
2022-12-27T18:58:20.597Z,18.55
2022-12-27T19:00:54.886Z,15.50
2022-12-27T19:03:21.709Z,12.57
2022-12-27T19:06:07.721Z,10.85
2022-12-27T19:08:43.947Z,11.18
2022-12-27T19:11:25.501Z,11.40
2022-12-27T19:13:59.322Z,11.40
2022-12-27T19:16:31.516Z,12.02
2022-12-27T19:19:05.000Z,10.25
2022-12-27T19:21:37.874Z,10.70
2022-12-27T19:24:29.341Z,10.48
2022-12-27T19:27:00.700Z,8.23
2022-12-27T19:29:31.390Z,9.40
2022-12-27T19:32:03.515Z,10.57
2022-12-27T19:34:39.379Z,16.85
2022-12-27T19:37:06.072Z,14.43
2022-12-27T19:39:38.570Z,13.07
2022-12-27T19:42:08.405Z,11.40
2022-12-27T19:44:35.127Z,21.10
2022-12-27T19:47:01.858Z,30.17
2022-12-27T19:49:44.910Z,58.40
2022-12-27T19:52:19.345Z,149.57
2022-12-27T19:54:47.590Z,110.72
2022-12-27T19:57:14.565Z,91.13
2022-12-27T19:59:41.434Z,41.25
2022-12-27T20:02:08.580Z,16.38
2022-12-27T20:04:35.479Z,14.70
2022-12-27T20:07:02.496Z,8.93
2022-12-27T20:09:29.276Z,7.60
2022-12-27T20:11:55.987Z,6.78
2022-12-27T20:14:22.674Z,5.63
2022-12-27T20:16:49.440Z,7.03
2022-12-27T20:19:17.964Z,6.75
2022-12-27T20:21:45.079Z,8.23
2022-12-27T20:24:12.971Z,11.85
2022-12-27T20:26:40.267Z,13.52
2022-12-27T20:29:07.331Z,10.85
2022-12-27T20:31:40.630Z,14.00
2022-12-27T20:34:11.248Z,13.27
2022-12-27T20:36:38.141Z,12.55
2022-12-27T20:39:06.800Z,12.98
2022-12-27T20:41:33.491Z,9.85
2022-12-27T20:44:00.155Z,11.07
2022-12-27T20:46:27.103Z,13.35
2022-12-27T20:48:54.842Z,8.40
2022-12-27T20:51:27.412Z,24.98
2022-12-27T20:53:56.252Z,36.08
2022-12-27T20:56:23.851Z,32.92
2022-12-27T20:58:50.719Z,18.20
2022-12-27T21:01:23.577Z,16.25
2022-12-27T21:03:51.043Z,22.90
2022-12-27T21:06:23.716Z,18.98
2022-12-27T21:08:56.829Z,23.73
2022-12-27T21:11:27.553Z,18.10
2022-12-27T21:13:54.725Z,14.20
2022-12-27T21:16:23.943Z,15.88
2022-12-27T21:18:50.839Z,5.68
2022-12-27T21:21:25.696Z,4.68
2022-12-27T21:23:55.103Z,6.53
2022-12-27T21:26:24.882Z,5.70
2022-12-27T21:28:51.978Z,8.25
2022-12-27T21:31:19.555Z,14.30
2022-12-27T21:33:47.407Z,31.70
2022-12-27T21:36:19.761Z,3.38
2022-12-27T21:38:47.637Z,3.47
2022-12-27T21:41:15.686Z,2.78
2022-12-27T21:43:43.533Z,8.65
2022-12-27T21:46:20.860Z,7.43
2022-12-27T21:48:49.053Z,9.10
2022-12-27T21:51:18.244Z,14.23
2022-12-27T21:53:45.916Z,16.73
2022-12-27T21:56:14.826Z,15.07
2022-12-27T21:58:43.090Z,17.85
2022-12-27T22:01:19.204Z,15.63
2022-12-27T22:03:47.976Z,12.07
2022-12-27T22:06:17.537Z,14.77
2022-12-27T22:08:46.458Z,10.00
2022-12-27T22:11:14.075Z,10.07
2022-12-27T22:13:41.387Z,10.20
2022-12-27T22:16:12.927Z,12.23
2022-12-27T22:18:44.292Z,11.73
2022-12-27T22:21:14.116Z,12.48
2022-12-27T22:23:43.547Z,12.15
2022-12-27T22:26:22.124Z,11.52
2022-12-27T22:28:48.933Z,11.68
2022-12-27T22:31:21.869Z,9.60
2022-12-27T22:33:49.445Z,9.32
2022-12-27T22:36:26.754Z,16.35
2022-12-27T22:38:56.538Z,9.75
2022-12-27T22:41:32.032Z,6.93
2022-12-27T22:44:11.645Z,10.05
2022-12-27T22:47:15.266Z,9.25
2022-12-27T22:49:26.281Z,7.03
2022-12-27T22:51:53.305Z,6.18
2022-12-27T22:54:20.004Z,5.38
2022-12-27T22:56:46.716Z,4.68
2022-12-27T22:59:16.317Z,8.10
2022-12-27T23:01:44.879Z,5.47
2022-12-27T23:04:13.570Z,7.18
2022-12-27T23:06:40.780Z,5.28
2022-12-27T23:09:08.167Z,5.47
2022-12-27T23:11:37.685Z,4.93
2022-12-27T23:14:08.949Z,5.93
2022-12-27T23:16:40.946Z,6.03
2022-12-27T23:19:08.056Z,4.57
2022-12-27T23:21:35.011Z,4.28
2022-12-27T23:24:02.147Z,5.40
2022-12-27T23:26:28.916Z,7.63
2022-12-27T23:28:55.962Z,4.30
2022-12-27T23:31:26.071Z,4.03
2022-12-27T23:33:53.474Z,6.28
2022-12-27T23:36:20.275Z,7.85
2022-12-27T23:38:47.626Z,5.03
2022-12-27T23:41:20.757Z,7.63
2022-12-27T23:43:53.257Z,11.05
2022-12-27T23:46:29.928Z,21.35
2022-12-27T23:48:58.535Z,54.40
2022-12-27T23:51:25.637Z,48.33
2022-12-27T23:53:52.535Z,37.95
2022-12-27T23:56:24.806Z,26.13
2022-12-27T23:58:54.164Z,23.00
